Portada
METAR-TAF:

METAR-TAF

Aeroports :

Shijiazhuang, Xina

latitud: 38-16-51N, longitud: 114-41-48E, altitud: 233 m

Observació

L'informe es va fer fa 18 minuts, a les 15:00 UTC
Vent 4 kt del Est
Temperatura -2°C
Humitat 43%
Pressió 1031 hPa
Visibilitat: 7000 m

METAR: ZBSJ 151500Z 09002MPS 7000 NSC M02/M13 Q1031 NOSIG

Hora: 23:18 (15:18 UTC)

Pronòstic

L'informe es va fer fa 5 hores i 57 minuts, a les 09:21 UTC
Pronòstic vàlid del 15 a les 12 UTC al 16 a les 12 UTC
Vent 8 kt del Est/Sud-Est
Visibilitat: 5000 m
Pols estès

TAF: ZBSJ 150921Z 1512/1612 12004MPS 5000 DU NSC TX01/1512Z TNM07/1521Z

Observacions i pronòstics meteorològics de més de 4000 aeroports (METAR i TAF).

Les estacions disponibles són els punts grocs i vermells al mapa.

Posi el ratolí al punt desitjat per veure el nom de l'estació.

Feu clic per veure les observacions i els pronòstics meteorològics.

Per canviar el mapa: feu clic els botons verds amb una creu de color negre per apropar; al botó verd amb un guió per allunyar la imatge; o en les fletxes verdes per a mapes adjacents.


METAR-TAF: